Ansted, West Virginia
Current Conditions -  °F | °C
As of 1:51 PM on Friday 21 Nov 2014 (Local Time) from KBKW Reporting Station
Clear Clear  
Wind Chill: 27°   Ceiling: Unl
Heat Index: 33°   Visibility: 10mi
Dew Point:   Wind: 7mph
Humidity: 34%   Direction: 350°N
Pressure: 30.38"   Gusts: NA
Location:  38.14°N, 81.1°W
Report Text: KBKW 211851Z AUTO 35006KT 10SM CLR 01/M14 A3038 RMK AO2 SLP325 T00061139
Loading
Personal Weather Stations






























Interactive Weather Map New forecast layout! Learn more

10-Day Weather Forecast

Advertisements
Track Severe Weather on mobile